Last 24 Hours

Squaw-Belmont 8000'

Hourly Data | America/Los_Angeles
as of 3/29/20 2:56 PM PDT
Date & Time Temp (°F) RH (%) Dew Pt (°F) Wet Bulb (°F) Wind Dir (°) Wind Spd (mph) Wind Gust (mph) WindChill (°F) Latest Rain (In) New Snow (in) SnowDepth (in) Daily Min Temp (°F) Daily Max Temp (°F) Daily Rain (In)
3/29/20 - 1400 28.5 86 24.8 26.9 SW | 234 8.0 15.2 21.5 0.00 1.5 114.7 22.4 32.9 0.14
3/29/20 - 1300 29.8 81 24.6 27.6 SW | 225 8.4 13.8 22.5 0.00 1.7 115.0 22.4 32.9 0.14
3/29/20 - 1200 31.3 76 24.7 28.6 SW | 220 6.8 11.4 23.2 0.01 1.8 115.4 22.4 32.9 0.14
3/29/20 - 1100 26.6 88 23.6 25.4 SW | 230 6.4 14.9 19.7 0.00 1.7 115.7 22.4 27.7 0.13
3/29/20 - 1000 26.1 88 23.2 25.0 SSW | 212 8.5 14.8 17.8 0.02 1.6 115.8 22.4 27.7 0.13
3/29/20 - 0900 24.6 93 22.9 24.0 SSW | 206 10.5 16.5 14.2 0.01 1.6 115.3 22.4 25.7 0.11
3/29/20 - 0800 23.4 95 22.3 23.0 SSW | 200 9.5 16.9 13.4 0.01 1.7 115.6 22.4 23.7 0.10
3/29/20 - 0700 23.0 96 22.0 22.6 SSW | 209 5.7 12.6 16.4 0.03 1.3 115.3 22.4 23.0 0.09
3/29/20 - 0600 22.7 98 22.3 22.5 S | 187 3.9 8.6 18.4 0.00 1.1 115.0 22.4 23.0 0.06
3/29/20 - 0500 22.6 96 21.7 22.3 SSW | 196 5.8 14.0 15.9 0.02 1.1 115.2 22.6 23.0 0.06
3/29/20 - 0400 22.7 97 22.1 22.5 SSW | 196 7.2 17.5 14.5 0.01 1.0 115.2 22.6 23.0 0.04
3/29/20 - 0300 22.7 98 22.2 22.5 SSW | 202 7.6 18.9 14.7 0.00 0.8 115.0 22.7 23.0 0.03
3/29/20 - 0200 22.9 97 22.3 22.7 SSW | 211 7.5 16.3 14.7 0.02 0.8 115.1 22.8 23.0 0.03
3/29/20 - 0100 23.0 96 21.9 22.6 SSW | 212 8.2 15.3 13.8 0.01 0.7 115.1 22.8 23.0 0.01
3/29/20 - 0000 22.9 95 21.7 22.5 SW | 214 9.8 16.7 12.8 0.02 0.6 115.0 18.3 31.5 0.10
3/28/20 - 2300 23.0 96 21.9 22.6 SSW | 210 10.1 21.4 13.2 0.01 0.6 115.0 18.3 31.5 0.08
3/28/20 - 2200 23.6 95 22.4 23.1 SSW | 199 6.1 17.7 17.4 0.01 0.4 115.0 18.3 31.5 0.07
3/28/20 - 2100 23.8 96 22.7 23.4 SSW | 192 5.6 15.7 17.4 0.01 0.4 115.0 18.3 31.5 0.06
3/28/20 - 2000 23.8 96 22.7 23.3 S | 188 5.2 13.3 18.4 0.01 0.2 115.1 18.3 31.5 0.05
3/28/20 - 1900 24.7 95 23.4 24.2 S | 188 5.1 17.0 20.0 0.02 0.1 114.8 18.3 31.5 0.04
3/28/20 - 1800 25.4 92 23.3 24.6 SSW | 206 6.8 15.7 19.3 0.02 0.0 114.6 18.3 31.5 0.02
3/28/20 - 1700 26.9 89 24.0 25.7 SW | 216 8.0 18.0 20.0 0.00 0.0 114.5 18.3 31.5 0.00
3/28/20 - 1600 28.6 84 24.2 26.9 SSW | 203 5.7 14.5 24.3 0.00 0.0 114.4 18.3 31.5 0.00
3/28/20 - 1500 30.3 79 24.5 27.9 SSW | 202 5.7 13.3 25.4 0.00 0.0 114.5 18.3 31.5 0.00
3/28/20 - 1400 30.9 75 24.0 28.1 SSW | 196 5.0 11.8 26.0 0.00 0.0 114.5 18.3 31.5 0.00
Max 31.3 98 24.8 28.6 - 10.5 21.4 26.0 0.03 1.8 115.8 22.8 32.9 0.14
Avg 25.3 91 23.0 24.4 - 7.1 15.3 18.2 0.01 0.8 115.0 - - -
Min 22.6 75 21.7 22.3 - 3.9 8.6 12.8 0.00 0.0 114.4 18.3 23.0 0.00
Total - - - - - - - - 0.24 - - - - -